createdAt,value
2022-08-26T00:02:07.438Z,8.82
2022-08-26T00:04:36.362Z,10.10
2022-08-26T00:07:04.704Z,8.88
2022-08-26T00:09:39.083Z,15.73
2022-08-26T00:12:12.168Z,12.15
2022-08-26T00:14:41.260Z,8.35
2022-08-26T00:17:09.941Z,9.18
2022-08-26T00:19:38.054Z,9.77
2022-08-26T00:22:07.080Z,11.02
2022-08-26T00:24:35.480Z,13.35
2022-08-26T00:27:04.052Z,11.55
2022-08-26T00:29:37.688Z,11.88
2022-08-26T00:32:07.008Z,8.75
2022-08-26T00:34:36.248Z,9.02
2022-08-26T00:37:04.497Z,11.35
2022-08-26T00:39:37.950Z,10.82
2022-08-26T00:42:06.200Z,10.85
2022-08-26T00:44:35.860Z,13.25
2022-08-26T00:47:06.973Z,8.98
2022-08-26T00:49:38.442Z,12.35
2022-08-26T00:52:12.088Z,15.93
2022-08-26T00:54:47.050Z,7.70
2022-08-26T00:57:19.214Z,12.63
2022-08-26T00:59:54.632Z,11.38
2022-08-26T01:02:22.958Z,13.65
2022-08-26T01:04:55.646Z,11.90
2022-08-26T01:07:25.854Z,10.07
2022-08-26T01:09:54.033Z,9.10
2022-08-26T01:12:23.130Z,11.20
2022-08-26T01:14:53.176Z,12.48
2022-08-26T01:17:21.774Z,14.73
2022-08-26T01:19:53.491Z,13.20
2022-08-26T01:22:28.676Z,10.07
2022-08-26T01:25:00.382Z,8.93
2022-08-26T01:27:32.978Z,11.25
2022-08-26T01:30:03.710Z,9.50
2022-08-26T01:32:34.524Z,9.20
2022-08-26T01:35:03.990Z,10.98
2022-08-26T01:37:39.010Z,11.40
2022-08-26T01:40:17.857Z,11.27
2022-08-26T01:42:49.238Z,11.82
2022-08-26T01:45:20.985Z,14.27
2022-08-26T01:47:56.510Z,11.25
2022-08-26T01:50:30.725Z,15.63
2022-08-26T01:53:02.702Z,13.88
2022-08-26T01:55:34.200Z,10.40
2022-08-26T01:58:06.551Z,12.75
2022-08-26T02:00:35.336Z,13.88
2022-08-26T02:03:18.051Z,14.40
2022-08-26T02:05:48.730Z,9.18
2022-08-26T02:08:24.802Z,10.93
2022-08-26T02:10:56.001Z,10.75
2022-08-26T02:13:27.536Z,10.55
2022-08-26T02:15:56.278Z,11.68
2022-08-26T02:18:26.492Z,10.93
2022-08-26T02:20:57.110Z,16.40
2022-08-26T02:23:26.029Z,9.38
2022-08-26T02:26:02.229Z,12.38
2022-08-26T02:28:36.934Z,12.85
2022-08-26T02:31:05.042Z,13.40
2022-08-26T02:33:33.247Z,11.88
2022-08-26T02:36:04.077Z,11.32
2022-08-26T02:38:32.092Z,12.25
2022-08-26T02:41:01.627Z,13.30
2022-08-26T02:43:31.622Z,12.93
2022-08-26T02:46:02.319Z,11.73
2022-08-26T02:48:31.238Z,10.32
2022-08-26T02:51:01.926Z,13.68
2022-08-26T02:53:31.970Z,15.18
2022-08-26T02:56:05.293Z,10.18
2022-08-26T03:01:01.742Z,19.33
2022-08-26T03:03:33.665Z,13.07
2022-08-26T03:06:01.996Z,13.88
2022-08-26T03:08:30.381Z,10.93
2022-08-26T03:10:58.204Z,11.23
2022-08-26T03:13:31.032Z,13.25
2022-08-26T03:16:02.439Z,15.40
2022-08-26T03:18:30.795Z,15.80
2022-08-26T03:20:59.194Z,10.80
2022-08-26T03:23:27.174Z,8.60
2022-08-26T03:25:57.025Z,12.00
2022-08-26T03:28:27.289Z,11.18
2022-08-26T03:30:56.025Z,9.45
2022-08-26T03:33:24.413Z,8.52
2022-08-26T03:35:53.734Z,13.10
2022-08-26T03:38:25.273Z,11.43
2022-08-26T03:40:53.620Z,14.75
2022-08-26T03:43:22.525Z,11.45
2022-08-26T03:45:51.289Z,9.25
2022-08-26T03:48:20.658Z,12.07
2022-08-26T03:50:48.804Z,10.05
2022-08-26T03:53:20.543Z,12.48
2022-08-26T03:55:52.026Z,13.38
2022-08-26T03:58:20.920Z,13.43
2022-08-26T04:00:49.533Z,10.90
2022-08-26T04:03:38.756Z,10.98
2022-08-26T04:06:07.514Z,13.02
2022-08-26T04:08:35.831Z,10.02
2022-08-26T04:11:04.323Z,9.27
2022-08-26T04:13:33.751Z,17.25
2022-08-26T04:16:01.557Z,15.30
2022-08-26T04:18:37.047Z,8.32
2022-08-26T04:21:07.924Z,11.40
2022-08-26T04:23:47.166Z,11.60
2022-08-26T04:26:16.436Z,12.57
2022-08-26T04:28:45.235Z,12.77
2022-08-26T04:31:14.754Z,9.90
2022-08-26T04:33:45.758Z,10.27
2022-08-26T04:36:15.394Z,10.70
2022-08-26T04:38:43.308Z,13.60
2022-08-26T04:41:15.582Z,11.38
2022-08-26T04:43:45.455Z,10.48
2022-08-26T04:46:17.444Z,10.55
2022-08-26T04:48:49.146Z,19.95
2022-08-26T04:51:17.694Z,15.02
2022-08-26T04:53:46.351Z,12.07
2022-08-26T04:56:14.447Z,8.30
2022-08-26T04:58:42.471Z,9.30
2022-08-26T05:01:10.710Z,14.65
2022-08-26T05:03:39.014Z,12.18
2022-08-26T05:06:12.434Z,13.02
2022-08-26T05:08:41.034Z,18.30
2022-08-26T05:11:10.883Z,12.50
2022-08-26T05:13:39.576Z,13.82
2022-08-26T05:16:09.522Z,11.50
2022-08-26T05:18:41.325Z,11.45
2022-08-26T05:21:20.409Z,9.93
2022-08-26T05:23:51.421Z,13.90
2022-08-26T05:26:20.246Z,11.00
2022-08-26T05:28:54.718Z,10.48
2022-08-26T05:31:25.633Z,10.02
2022-08-26T05:33:53.766Z,9.27
2022-08-26T05:36:26.994Z,10.00
2022-08-26T05:38:55.620Z,11.35
2022-08-26T05:41:34.483Z,11.00
2022-08-26T05:44:07.436Z,8.55
2022-08-26T05:46:37.818Z,9.82
2022-08-26T05:49:12.791Z,14.77
2022-08-26T05:51:46.410Z,15.80
2022-08-26T05:54:21.728Z,17.27
2022-08-26T05:56:51.219Z,19.98
2022-08-26T05:59:24.130Z,18.23
2022-08-26T06:01:54.839Z,18.50
2022-08-26T06:04:27.515Z,17.27
2022-08-26T06:06:59.919Z,13.02
2022-08-26T06:09:28.462Z,12.32
2022-08-26T06:11:59.067Z,19.25
2022-08-26T06:14:27.039Z,20.02
2022-08-26T06:16:55.364Z,15.45
2022-08-26T06:19:24.318Z,19.27
2022-08-26T06:21:54.711Z,21.63
2022-08-26T06:24:42.257Z,17.40
2022-08-26T06:27:13.925Z,16.45
2022-08-26T06:29:43.601Z,18.52
2022-08-26T06:32:11.604Z,14.68
2022-08-26T06:34:39.674Z,29.35
2022-08-26T06:37:08.925Z,15.80
2022-08-26T06:39:41.210Z,19.95
2022-08-26T06:42:10.811Z,18.40
2022-08-26T06:44:40.912Z,13.65
2022-08-26T06:47:09.157Z,19.27
2022-08-26T06:49:38.290Z,12.68
2022-08-26T06:52:07.850Z,21.23
2022-08-26T07:52:26.670Z,19.10
2022-08-26T07:54:58.008Z,13.27
2022-08-26T07:57:26.508Z,14.55
2022-08-26T07:59:55.737Z,15.35
2022-08-26T08:02:25.556Z,15.10
2022-08-26T08:04:54.722Z,17.85
2022-08-26T08:07:38.385Z,16.75
2022-08-26T08:10:15.123Z,11.55
2022-08-26T08:12:44.020Z,11.75
2022-08-26T08:15:13.965Z,11.73
2022-08-26T08:17:43.934Z,15.20
2022-08-26T08:20:14.809Z,14.30
2022-08-26T08:22:43.651Z,13.95
2022-08-26T08:25:13.870Z,12.40
2022-08-26T08:27:45.216Z,15.73
2022-08-26T08:30:14.285Z,15.63
2022-08-26T08:32:44.673Z,10.57
2022-08-26T08:35:15.617Z,17.60
2022-08-26T08:37:45.327Z,12.63
2022-08-26T08:40:18.631Z,14.25
2022-08-26T08:45:26.638Z,10.35
2022-08-26T08:47:57.997Z,15.60
2022-08-26T08:50:31.005Z,12.00
2022-08-26T08:55:48.868Z,16.83
2022-08-26T08:58:20.601Z,11.65
2022-08-26T09:00:59.217Z,8.98
2022-08-26T09:03:46.636Z,14.27
2022-08-26T09:06:19.008Z,16.15
2022-08-26T09:08:50.120Z,15.88
2022-08-26T09:11:21.328Z,8.88
2022-08-26T09:13:53.932Z,13.57
2022-08-26T09:16:27.577Z,9.02
2022-08-26T09:19:07.134Z,10.55
2022-08-26T09:21:35.852Z,11.73
2022-08-26T09:24:04.858Z,13.25
2022-08-26T09:26:47.404Z,10.82
2022-08-26T09:31:54.100Z,12.30
2022-08-26T09:34:25.092Z,22.88
2022-08-26T09:36:55.215Z,17.33
2022-08-26T09:39:31.715Z,22.98
2022-08-26T09:42:11.242Z,12.80
2022-08-26T09:45:00.224Z,14.52
2022-08-26T09:47:32.011Z,12.60
2022-08-26T09:50:09.668Z,16.00
2022-08-26T09:52:38.109Z,15.50
2022-08-26T09:55:13.698Z,14.48
2022-08-26T09:57:52.180Z,12.57
2022-08-26T10:00:33.498Z,17.33
2022-08-26T10:03:03.749Z,24.65
2022-08-26T10:05:38.279Z,18.35
2022-08-26T10:08:23.044Z,18.20
2022-08-26T10:10:53.287Z,14.02
2022-08-26T10:13:29.581Z,15.88
2022-08-26T10:16:10.638Z,17.02
2022-08-26T10:18:43.917Z,17.98
2022-08-26T10:21:19.978Z,15.25
2022-08-26T10:23:53.029Z,18.08
2022-08-26T10:26:26.583Z,29.20
2022-08-26T10:29:06.506Z,27.00
2022-08-26T10:31:40.949Z,28.48
2022-08-26T10:34:12.481Z,18.52
2022-08-26T10:37:14.844Z,12.52
2022-08-26T10:39:49.695Z,12.90
2022-08-26T10:42:31.111Z,15.85
2022-08-26T10:45:11.802Z,11.20
2022-08-26T10:47:48.893Z,14.07
2022-08-26T10:50:18.858Z,16.45
2022-08-26T10:53:01.347Z,16.92
2022-08-26T10:55:36.592Z,18.98
2022-08-26T10:58:26.405Z,17.48
2022-08-26T11:01:22.819Z,20.80
2022-08-26T11:03:59.539Z,15.23
2022-08-26T11:06:30.044Z,11.68
2022-08-26T11:09:01.029Z,12.02
2022-08-26T11:11:51.811Z,16.33
2022-08-26T11:14:41.030Z,18.88
2022-08-26T11:17:55.709Z,21.65
2022-08-26T11:20:37.298Z,21.77
2022-08-26T11:23:50.460Z,13.52
2022-08-26T11:26:35.433Z,22.25
2022-08-26T11:29:11.967Z,20.52
2022-08-26T11:31:57.120Z,13.30
2022-08-26T11:34:56.379Z,16.63
2022-08-26T11:37:32.466Z,14.77
2022-08-26T11:40:03.205Z,23.23
2022-08-26T11:42:37.797Z,19.73
2022-08-26T11:45:20.480Z,13.60
2022-08-26T11:47:51.227Z,15.25
2022-08-26T11:50:21.207Z,14.18
2022-08-26T11:53:01.860Z,15.05
2022-08-26T11:55:31.858Z,22.10
2022-08-26T11:58:02.422Z,14.77
2022-08-26T12:03:09.378Z,15.57
2022-08-26T12:05:43.618Z,18.95
2022-08-26T12:08:19.520Z,20.83
2022-08-26T12:10:48.386Z,21.35
2022-08-26T12:13:23.807Z,17.33
2022-08-26T12:15:55.658Z,16.05
2022-08-26T12:18:29.371Z,13.73
2022-08-26T12:21:01.701Z,13.50
2022-08-26T12:23:42.103Z,16.27
2022-08-26T12:26:20.084Z,14.75
2022-08-26T12:28:52.784Z,12.98
2022-08-26T12:31:32.614Z,18.95
2022-08-26T12:34:02.379Z,19.17
2022-08-26T12:36:33.777Z,18.98
2022-08-26T12:39:12.931Z,14.13
2022-08-26T12:41:47.741Z,13.77
2022-08-26T12:44:38.074Z,16.77
2022-08-26T12:47:13.321Z,19.63
2022-08-26T12:49:46.503Z,12.25
2022-08-26T12:52:30.855Z,16.77
2022-08-26T12:55:03.433Z,15.32
2022-08-26T12:57:36.075Z,22.55
2022-08-26T13:00:31.100Z,18.73
2022-08-26T13:02:59.757Z,12.90
2022-08-26T13:05:48.678Z,12.63
2022-08-26T13:08:26.469Z,11.90
2022-08-26T13:11:10.253Z,13.18
2022-08-26T13:13:40.420Z,11.77
2022-08-26T13:16:08.538Z,19.67
2022-08-26T13:18:36.817Z,9.27
2022-08-26T13:21:10.811Z,15.07
2022-08-26T13:23:42.401Z,15.88
2022-08-26T13:26:12.102Z,14.03
2022-08-26T13:28:40.512Z,10.45
2022-08-26T13:31:09.978Z,12.60
2022-08-26T13:33:39.273Z,10.90
2022-08-26T13:36:08.727Z,11.25
2022-08-26T13:38:36.852Z,11.77
2022-08-26T13:41:05.895Z,10.32
2022-08-26T13:43:35.722Z,12.38
2022-08-26T13:46:04.098Z,13.57
2022-08-26T13:48:34.192Z,21.17
2022-08-26T13:51:03.513Z,12.98
2022-08-26T13:53:37.240Z,12.63
2022-08-26T13:56:08.035Z,13.93
2022-08-26T13:58:39.739Z,13.50
2022-08-26T14:01:08.720Z,17.80
2022-08-26T14:03:36.749Z,11.52
2022-08-26T14:06:07.575Z,16.73
2022-08-26T14:08:37.001Z,21.40
2022-08-26T14:11:06.884Z,24.65
2022-08-26T14:13:35.376Z,20.10
2022-08-26T14:16:08.928Z,23.98
2022-08-26T14:18:45.192Z,41.22
2022-08-26T14:21:15.707Z,23.30
2022-08-26T14:23:45.364Z,25.13
2022-08-26T14:26:16.833Z,22.00
2022-08-26T14:28:56.997Z,21.52
2022-08-26T14:31:27.232Z,23.35
2022-08-26T14:33:57.700Z,26.23
2022-08-26T14:36:32.624Z,21.48
2022-08-26T14:39:04.414Z,18.48
2022-08-26T14:41:33.666Z,19.25
2022-08-26T14:44:05.107Z,14.05
2022-08-26T14:46:42.169Z,13.38
2022-08-26T14:49:12.555Z,18.70
2022-08-26T14:51:41.022Z,18.48
2022-08-26T14:54:14.847Z,9.77
2022-08-26T14:56:53.445Z,8.63
2022-08-26T14:59:24.664Z,11.30
2022-08-26T15:01:54.869Z,9.45
2022-08-26T15:04:24.935Z,12.88
2022-08-26T15:06:53.785Z,11.40
2022-08-26T15:09:22.379Z,12.35
2022-08-26T15:11:53.204Z,14.32
2022-08-26T15:14:22.237Z,13.43
2022-08-26T15:16:52.712Z,18.10
2022-08-26T15:19:23.940Z,17.60
2022-08-26T15:21:53.188Z,13.57
2022-08-26T15:24:24.911Z,18.15
2022-08-26T15:26:53.754Z,23.50
2022-08-26T15:29:23.752Z,20.27
2022-08-26T15:31:51.989Z,19.48
2022-08-26T15:34:26.322Z,22.05
2022-08-26T15:36:55.217Z,23.67
2022-08-26T15:39:23.621Z,20.33
2022-08-26T15:41:52.360Z,21.55
2022-08-26T15:44:20.929Z,23.48
2022-08-26T15:46:52.473Z,22.02
2022-08-26T15:49:24.707Z,20.08
2022-08-26T15:51:54.666Z,27.20
2022-08-26T15:54:24.439Z,28.10
2022-08-26T15:56:53.184Z,21.42
2022-08-26T15:59:23.043Z,23.77
2022-08-26T16:01:52.173Z,27.98
2022-08-26T16:04:20.680Z,24.55
2022-08-26T16:06:52.364Z,23.48
2022-08-26T16:09:24.266Z,24.23
2022-08-26T16:11:52.906Z,24.30
2022-08-26T16:14:21.112Z,20.98
2022-08-26T16:16:50.789Z,20.88
2022-08-26T16:19:19.625Z,20.98
2022-08-26T16:21:48.188Z,19.00
2022-08-26T16:24:29.769Z,19.73
2022-08-26T16:26:58.959Z,17.27
2022-08-26T16:29:27.858Z,16.98
2022-08-26T16:31:56.021Z,18.23
2022-08-26T16:34:24.356Z,17.25
2022-08-26T16:36:53.023Z,16.63
2022-08-26T16:39:23.039Z,17.42
2022-08-26T16:41:51.008Z,20.25
2022-08-26T16:44:19.535Z,27.88
2022-08-26T16:46:48.233Z,17.35
2022-08-26T16:49:18.812Z,17.58
2022-08-26T16:51:47.075Z,15.00
2022-08-26T16:54:15.679Z,18.20
2022-08-26T16:56:45.530Z,15.60
2022-08-26T16:59:13.928Z,19.83
2022-08-26T17:01:42.513Z,17.50
2022-08-26T17:04:11.424Z,19.17
2022-08-26T17:06:40.162Z,25.10
2022-08-26T17:09:08.684Z,25.00
2022-08-26T17:11:37.881Z,32.17
2022-08-26T17:14:07.787Z,23.42
2022-08-26T17:16:35.831Z,26.73
2022-08-26T17:19:05.950Z,30.42
2022-08-26T17:21:36.874Z,25.70
2022-08-26T17:24:06.667Z,34.67
2022-08-26T17:26:37.912Z,31.88
2022-08-26T17:29:08.612Z,34.00
2022-08-26T17:31:37.532Z,36.42
2022-08-26T17:34:08.839Z,27.73
2022-08-26T17:36:37.043Z,30.52
2022-08-26T17:39:07.120Z,33.17
2022-08-26T17:41:35.653Z,29.80
2022-08-26T17:44:04.505Z,32.22
2022-08-26T17:46:38.194Z,36.13
2022-08-26T17:49:10.165Z,31.20
2022-08-26T17:51:38.110Z,31.52
2022-08-26T17:54:07.307Z,33.67
2022-08-26T17:56:35.714Z,30.77
2022-08-26T17:59:04.283Z,37.28
2022-08-26T18:01:37.613Z,34.28
2022-08-26T18:04:07.406Z,33.78
2022-08-26T18:06:35.882Z,31.40
2022-08-26T18:09:04.327Z,32.08
2022-08-26T18:11:34.821Z,31.23
2022-08-26T18:14:03.145Z,34.33
2022-08-26T18:16:31.817Z,33.75
2022-08-26T18:19:01.638Z,33.67
2022-08-26T18:21:30.679Z,29.92
2022-08-26T18:23:59.136Z,33.15
2022-08-26T18:26:29.105Z,29.40
2022-08-26T18:28:57.475Z,29.67
2022-08-26T18:31:26.746Z,31.27
2022-08-26T18:33:55.779Z,30.42
2022-08-26T18:36:30.132Z,32.10
2022-08-26T18:38:58.785Z,34.83
2022-08-26T18:41:29.654Z,36.78
2022-08-26T18:43:59.473Z,26.75
2022-08-26T18:46:29.416Z,30.88
2022-08-26T18:48:59.235Z,26.95
2022-08-26T18:51:34.526Z,29.05
2022-08-26T18:54:05.556Z,26.50
2022-08-26T18:56:34.697Z,27.20
2022-08-26T18:59:04.703Z,29.70
2022-08-26T19:01:33.374Z,34.20
2022-08-26T19:04:04.301Z,28.60
2022-08-26T19:06:35.535Z,29.40
2022-08-26T19:09:04.459Z,28.30
2022-08-26T19:11:38.347Z,24.88
2022-08-26T19:14:13.671Z,25.48
2022-08-26T19:16:43.505Z,28.95
2022-08-26T19:19:11.814Z,28.10
2022-08-26T19:21:41.332Z,25.42
2022-08-26T19:24:15.274Z,25.70
2022-08-26T19:26:43.910Z,32.50
2022-08-26T19:29:12.318Z,29.80
2022-08-26T19:31:42.229Z,25.30
2022-08-26T19:34:12.824Z,26.70
2022-08-26T19:36:44.823Z,27.67
2022-08-26T19:39:15.025Z,26.92
2022-08-26T19:41:44.225Z,28.50
2022-08-26T19:44:34.313Z,24.77
2022-08-26T19:47:03.592Z,24.48
2022-08-26T19:49:32.075Z,23.48
2022-08-26T19:52:03.910Z,23.92
2022-08-26T19:54:32.115Z,24.00
2022-08-26T19:57:00.847Z,22.90
2022-08-26T19:59:29.284Z,26.90
2022-08-26T20:02:01.064Z,24.42
2022-08-26T20:04:30.258Z,24.33
2022-08-26T20:06:58.828Z,26.98
2022-08-26T20:09:31.143Z,24.02
2022-08-26T20:12:00.181Z,23.98
2022-08-26T20:14:30.612Z,27.98
2022-08-26T20:16:58.952Z,24.08
2022-08-26T20:19:45.507Z,26.20
2022-08-26T20:22:20.102Z,23.55
2022-08-26T20:24:49.614Z,27.38
2022-08-26T20:27:17.864Z,27.63
2022-08-26T20:29:46.234Z,26.25
2022-08-26T20:32:14.921Z,25.90
2022-08-26T20:34:42.991Z,27.13
2022-08-26T20:37:12.404Z,29.27
2022-08-26T20:39:40.291Z,21.65
2022-08-26T20:42:20.174Z,22.50
2022-08-26T20:44:54.500Z,23.77
2022-08-26T20:47:23.784Z,20.17
2022-08-26T20:49:52.678Z,23.02
2022-08-26T20:52:21.430Z,27.27
2022-08-26T20:54:49.275Z,23.67
2022-08-26T20:57:18.937Z,19.35
2022-08-26T20:59:47.362Z,24.85
2022-08-26T21:02:16.583Z,20.60
2022-08-26T21:04:44.800Z,21.83
2022-08-26T21:07:13.230Z,21.15
2022-08-26T21:09:41.375Z,22.58
2022-08-26T21:12:10.145Z,21.38
2022-08-26T21:14:39.630Z,17.88
2022-08-26T21:17:07.917Z,20.20
2022-08-26T21:19:35.662Z,20.05
2022-08-26T21:22:04.136Z,20.40
2022-08-26T21:24:32.338Z,21.25
2022-08-26T21:27:00.758Z,19.27
2022-08-26T21:29:29.065Z,20.58
2022-08-26T21:31:58.910Z,23.10
2022-08-26T21:34:27.158Z,20.27
2022-08-26T21:36:55.141Z,15.93
2022-08-26T21:39:23.448Z,19.20
2022-08-26T21:41:51.533Z,19.95
2022-08-26T21:44:19.473Z,18.55
2022-08-26T21:46:49.167Z,23.17
2022-08-26T21:49:18.665Z,20.20
2022-08-26T21:51:49.355Z,18.70
2022-08-26T21:54:18.388Z,18.88
2022-08-26T21:56:47.901Z,17.67
2022-08-26T21:59:17.417Z,21.27
2022-08-26T22:01:45.488Z,20.83
2022-08-26T22:04:13.603Z,22.73
2022-08-26T22:06:45.488Z,22.50
2022-08-26T22:09:14.958Z,18.48
2022-08-26T22:11:42.995Z,24.15
2022-08-26T22:14:11.393Z,23.60
2022-08-26T22:16:40.033Z,18.08
2022-08-26T22:19:12.279Z,18.75
2022-08-26T22:21:46.954Z,17.65
2022-08-26T22:24:14.721Z,19.40
2022-08-26T22:26:43.093Z,23.25
2022-08-26T22:29:11.028Z,23.38
2022-08-26T22:31:40.214Z,21.27
2022-08-26T22:34:11.428Z,18.95
2022-08-26T22:36:43.985Z,20.77
2022-08-26T22:39:16.266Z,19.75
2022-08-26T22:41:45.441Z,17.27
2022-08-26T22:44:14.006Z,23.70
2022-08-26T22:46:44.005Z,18.80
2022-08-26T22:49:15.778Z,17.85
2022-08-26T22:51:44.273Z,20.75
2022-08-26T22:54:14.448Z,19.02
2022-08-26T22:56:43.636Z,15.63
2022-08-26T22:59:12.399Z,19.02
2022-08-26T23:01:44.173Z,18.02
2022-08-26T23:04:12.913Z,19.70
2022-08-26T23:06:47.617Z,15.07
2022-08-26T23:09:18.771Z,19.38
2022-08-26T23:11:47.864Z,17.70
2022-08-26T23:14:20.210Z,20.23
2022-08-26T23:16:48.702Z,18.97
2022-08-26T23:19:19.256Z,18.35
2022-08-26T23:21:47.616Z,15.60
2022-08-26T23:24:18.079Z,19.63
2022-08-26T23:26:47.148Z,21.15
2022-08-26T23:29:15.528Z,16.63
2022-08-26T23:31:44.312Z,17.58
2022-08-26T23:34:30.382Z,15.48
2022-08-26T23:36:59.323Z,16.83
2022-08-26T23:39:32.842Z,20.35
2022-08-26T23:42:01.906Z,15.80
2022-08-26T23:44:30.572Z,24.48
2022-08-26T23:46:59.180Z,15.90
2022-08-26T23:49:27.544Z,20.05
2022-08-26T23:52:12.972Z,18.95
2022-08-26T23:54:42.472Z,18.02
2022-08-26T23:57:11.463Z,20.08
2022-08-26T23:59:40.113Z,20.88
